createdAt,value
2017-04-05T03:52:04.784Z,0
2017-04-05T03:52:53.469Z,0
2017-04-05T03:53:42.121Z,0
2017-04-05T03:54:30.737Z,0
2017-04-05T03:55:19.611Z,0
2017-04-05T03:56:07.849Z,0
2017-04-05T03:56:56.469Z,0
2017-04-05T03:57:45.435Z,0
2017-04-05T03:58:33.990Z,0
2017-04-05T03:59:22.796Z,0
2017-04-05T04:00:11.506Z,0
2017-04-05T04:01:00.079Z,0
2017-04-05T04:01:48.828Z,0
2017-04-05T04:02:37.329Z,0
2017-04-05T04:03:25.472Z,0
2017-04-05T04:04:14.095Z,0
2017-04-05T04:05:02.957Z,0
2017-04-05T04:05:51.422Z,0
2017-04-05T04:06:39.924Z,0
2017-04-05T04:07:28.873Z,0
2017-04-05T04:08:17.457Z,0
2017-04-05T04:09:06.056Z,0
2017-04-05T04:09:55.074Z,0
2017-04-05T04:10:43.444Z,0
2017-04-05T04:11:32.017Z,0
2017-04-05T04:12:20.977Z,0
2017-04-05T04:13:09.801Z,0
2017-04-05T04:13:58.389Z,0
2017-04-05T04:14:46.751Z,0
2017-04-05T04:15:35.387Z,0
2017-04-05T04:16:24.030Z,0
2017-04-05T04:17:06.601Z,0
2017-04-05T04:17:46.923Z,0
2017-04-05T04:18:27.299Z,0
2017-04-05T04:19:08.497Z,0
2017-04-05T04:19:48.938Z,0
2017-04-05T04:20:30.361Z,0
2017-04-05T04:21:10.842Z,0
2017-04-05T04:21:51.277Z,0
2017-04-05T04:22:32.605Z,0
2017-04-05T04:23:12.964Z,0
2017-04-05T04:23:54.385Z,0
2017-04-05T04:24:34.747Z,0
2017-04-05T04:25:16.790Z,0
2017-04-05T04:25:59.299Z,0
2017-04-05T04:26:41.609Z,0
2017-04-05T04:27:23.729Z,0
2017-04-05T04:28:04.220Z,0
2017-04-05T04:30:28.136Z,0
2017-04-05T04:31:16.467Z,0
2017-04-05T04:32:05.269Z,0
2017-04-05T04:32:53.624Z,0
2017-04-05T04:33:42.556Z,0
2017-04-05T04:34:31.015Z,0
2017-04-05T04:35:19.498Z,0
2017-04-05T04:36:08.063Z,0
2017-04-05T04:36:56.560Z,0
2017-04-05T04:37:45.639Z,0
2017-04-05T04:38:34.333Z,0
2017-04-05T04:39:22.547Z,0
2017-04-05T04:40:11.491Z,0
2017-04-05T04:41:00.365Z,0
2017-04-05T04:41:48.624Z,0
2017-04-05T04:42:37.268Z,0
2017-04-05T04:43:25.999Z,0
2017-04-05T04:44:14.253Z,0
2017-04-05T04:45:03.372Z,5
2017-04-05T04:45:51.493Z,5
2017-04-05T04:46:40.027Z,5
2017-04-05T04:47:28.688Z,5
2017-04-05T04:48:17.511Z,5
2017-04-05T04:49:05.970Z,5
2017-04-05T04:49:54.926Z,5
2017-04-05T04:50:43.492Z,5
2017-04-05T04:51:32.314Z,10
2017-04-05T04:56:02.006Z,15
2017-04-05T04:56:51.329Z,15
2017-04-05T04:57:39.595Z,15
2017-04-05T04:58:28.521Z,15
2017-04-05T05:00:49.411Z,20
2017-04-05T05:04:42.367Z,25
2017-04-05T05:05:33.171Z,30
2017-04-05T05:06:21.194Z,30
2017-04-05T05:07:09.709Z,30
2017-04-05T05:07:58.640Z,30
2017-04-05T05:08:47.249Z,35
2017-04-05T05:09:35.873Z,35
2017-04-05T05:10:24.324Z,35
2017-04-05T05:11:13.558Z,40
2017-04-05T05:12:01.490Z,40
2017-04-05T05:12:50.518Z,40
2017-04-05T05:13:38.830Z,45
2017-04-05T05:19:22.546Z,55
2017-04-05T05:21:43.465Z,60
2017-04-05T05:22:31.962Z,60
2017-04-05T05:23:20.924Z,65
2017-04-05T05:24:09.608Z,65
2017-04-05T05:24:58.238Z,65
2017-04-05T05:25:46.693Z,70
2017-04-05T05:26:35.471Z,70
2017-04-05T05:27:24.911Z,70
2017-04-05T05:28:13.139Z,75
2017-04-05T05:29:02.124Z,75
2017-04-05T05:29:50.353Z,75
2017-04-05T05:30:38.973Z,80
2017-04-05T05:31:27.647Z,80
2017-04-05T05:32:17.141Z,85
2017-04-05T05:33:05.367Z,85
2017-04-05T05:33:54.285Z,85
2017-04-05T05:34:42.892Z,90
2017-04-05T05:35:31.840Z,90
2017-04-05T05:37:52.652Z,95
2017-04-05T05:38:41.418Z,100
2017-04-05T05:39:29.600Z,100
2017-04-05T05:40:18.830Z,105
2017-04-05T05:41:06.846Z,105
2017-04-05T05:41:56.010Z,110
2017-04-05T05:42:44.208Z,110
2017-04-05T05:43:33.257Z,110
2017-04-05T05:44:21.725Z,115
2017-04-05T05:45:10.371Z,115
2017-04-05T05:45:59.059Z,120
2017-04-05T05:46:47.975Z,120
2017-04-05T05:47:36.328Z,125
2017-04-05T05:48:24.979Z,125
2017-04-05T05:49:13.473Z,130
2017-04-05T05:50:02.623Z,135
2017-04-05T05:50:50.730Z,140
2017-04-05T05:51:39.794Z,145
2017-04-05T05:52:28.251Z,150
2017-04-05T05:53:16.979Z,145
2017-04-05T05:54:05.359Z,150
2017-04-05T05:54:54.522Z,155
2017-04-05T05:55:42.819Z,165
2017-04-05T05:56:31.346Z,175
2017-04-05T05:57:20.415Z,185
2017-04-05T05:58:08.988Z,185
2017-04-05T05:58:57.351Z,195
2017-04-05T05:59:46.305Z,200
2017-04-05T06:00:34.438Z,205
2017-04-05T06:01:23.071Z,205
2017-04-05T06:02:12.200Z,215
2017-04-05T06:04:53.690Z,220
2017-04-05T06:05:42.163Z,225
2017-04-05T06:06:30.772Z,225
2017-04-05T06:08:52.676Z,235
2017-04-05T06:09:40.944Z,240
2017-04-05T06:10:29.581Z,240
2017-04-05T06:11:18.530Z,245
2017-04-05T06:12:06.480Z,250
2017-04-05T06:12:55.704Z,250
2017-04-05T06:13:44.373Z,255
2017-04-05T06:14:32.640Z,255
2017-04-05T06:15:21.207Z,260
2017-04-05T06:16:09.853Z,260
2017-04-05T06:16:58.755Z,265
2017-04-05T06:17:47.136Z,270
2017-04-05T06:18:35.659Z,275
2017-04-05T06:19:24.753Z,275
2017-04-05T06:20:12.846Z,280
2017-04-05T06:21:01.695Z,280
2017-04-05T06:21:50.301Z,285
2017-04-05T06:22:38.971Z,285
2017-04-05T06:23:27.202Z,290
2017-04-05T06:24:15.866Z,295
2017-04-05T06:25:04.530Z,295
2017-04-05T06:25:52.814Z,300
2017-04-05T06:26:41.719Z,300
2017-04-05T06:27:30.378Z,305
2017-04-05T06:29:52.404Z,315
2017-04-05T06:30:40.508Z,320
2017-04-05T06:31:29.159Z,320
2017-04-05T06:32:18.077Z,325
2017-04-05T06:33:06.558Z,330
2017-04-05T06:33:55.093Z,330
2017-04-05T06:34:43.509Z,335
2017-04-05T06:35:32.092Z,340
2017-04-05T06:36:21.075Z,340
2017-04-05T06:37:09.897Z,345
2017-04-05T06:37:58.886Z,350
2017-04-05T06:38:47.045Z,350
2017-04-05T06:39:35.869Z,355
2017-04-05T06:40:25.119Z,360
2017-04-05T06:41:14.201Z,365
2017-04-05T06:42:02.528Z,365
2017-04-05T06:42:50.983Z,370
2017-04-05T06:43:39.664Z,375
2017-04-05T06:44:28.108Z,375
2017-04-05T06:45:17.035Z,380
2017-04-05T06:46:05.535Z,385
2017-04-05T06:46:53.902Z,385
2017-04-05T06:47:42.918Z,390
2017-04-05T06:48:31.480Z,390
2017-04-05T06:49:20.008Z,395
2017-04-05T06:50:08.416Z,400
2017-04-05T06:50:57.519Z,400
2017-04-05T06:51:45.719Z,405
2017-04-05T06:52:34.759Z,405
2017-04-05T06:53:22.947Z,410
2017-04-05T06:54:11.308Z,420
2017-04-05T06:58:27.045Z,435
2017-04-05T06:59:17.541Z,440
2017-04-05T07:00:04.394Z,440
2017-04-05T07:00:54.766Z,450
2017-04-05T07:01:45.053Z,450
2017-04-05T07:02:37.525Z,455
2017-04-05T07:03:30.420Z,460
2017-04-05T07:05:51.963Z,465
2017-04-05T07:06:40.749Z,470
2017-04-05T07:07:29.820Z,475
2017-04-05T07:08:18.108Z,475
2017-04-05T07:09:07.064Z,480
2017-04-05T07:09:55.441Z,485
2017-04-05T07:10:43.967Z,485
2017-04-05T07:11:32.439Z,490
2017-04-05T07:12:21.543Z,495
2017-04-05T07:13:10.103Z,500
2017-04-05T07:13:57.263Z,505
2017-04-05T07:14:44.904Z,515
2017-04-05T07:15:33.847Z,515
2017-04-05T07:19:45.015Z,545
2017-04-05T07:20:31.814Z,550
2017-04-05T07:22:52.785Z,570
2017-04-05T07:23:37.485Z,575
2017-04-05T07:24:25.692Z,575
2017-04-05T07:25:07.000Z,585
2017-04-05T07:25:47.513Z,600
2017-04-05T07:26:27.850Z,605
2017-04-05T07:27:08.248Z,610
2017-04-05T07:27:49.609Z,620
2017-04-05T07:28:30.023Z,625
2017-04-05T07:29:10.488Z,630
2017-04-05T07:29:50.886Z,635
2017-04-05T07:30:31.979Z,640
2017-04-05T07:31:12.364Z,645
2017-04-05T07:31:52.819Z,645
2017-04-05T07:32:33.210Z,650
2017-04-05T07:33:13.546Z,655
2017-04-05T07:35:47.467Z,670
2017-04-05T07:43:38.974Z,785
2017-04-05T07:47:49.078Z,845
2017-04-05T07:48:29.514Z,825
2017-04-05T07:49:09.933Z,830
2017-04-05T07:49:51.818Z,845
2017-04-05T07:50:33.800Z,915
2017-04-05T07:51:16.937Z,970
2017-04-05T07:51:57.292Z,1310
2017-04-05T07:52:38.372Z,1745
2017-04-05T07:53:18.836Z,1955
2017-04-05T07:53:59.297Z,2095
2017-04-05T07:54:42.631Z,2075
2017-04-05T07:55:23.060Z,2170
2017-04-05T07:57:52.529Z,1925
2017-04-05T07:58:33.499Z,2130
2017-04-05T07:59:14.863Z,1505
2017-04-05T07:59:56.086Z,2105
2017-04-05T08:00:37.895Z,2115
2017-04-05T08:01:18.267Z,2100
2017-04-05T08:01:58.744Z,1975
2017-04-05T08:04:28.227Z,2210
2017-04-05T08:05:08.629Z,2135
2017-04-05T08:05:50.760Z,1625
2017-04-05T08:06:31.181Z,1900
2017-04-05T08:07:12.465Z,2250
2017-04-05T08:07:52.954Z,2330
2017-04-05T08:08:34.307Z,2170
2017-04-05T08:09:16.478Z,2530
2017-04-05T08:09:56.928Z,2685
2017-04-05T08:10:38.400Z,2845
2017-04-05T08:11:18.841Z,2880
2017-04-05T08:12:01.085Z,2695
2017-04-05T08:12:42.136Z,2780
2017-04-05T08:13:25.291Z,2745
2017-04-05T08:14:05.734Z,2715
2017-04-05T08:14:46.177Z,2820
2017-04-05T08:15:28.227Z,2780
2017-04-05T08:16:08.644Z,2595
2017-04-05T08:16:49.059Z,2880
2017-04-05T08:17:29.518Z,2765
2017-04-05T08:18:11.557Z,2975
2017-04-05T08:18:52.736Z,2745
2017-04-05T08:19:34.121Z,2720
2017-04-05T08:20:14.484Z,2795
2017-04-05T08:20:54.942Z,2820
2017-04-05T08:21:36.120Z,2145
2017-04-05T08:22:16.892Z,3120
2017-04-05T08:22:59.042Z,2975
2017-04-05T08:23:40.170Z,2710
2017-04-05T08:24:20.582Z,2535
2017-04-05T08:25:01.001Z,2135
2017-04-05T08:25:41.388Z,2300
2017-04-05T08:26:22.405Z,2350
2017-04-05T08:27:02.939Z,2490
2017-04-05T08:29:35.161Z,3355
2017-04-05T08:30:14.539Z,3085
2017-04-05T08:30:54.976Z,3425
2017-04-05T08:31:35.402Z,3370
2017-04-05T08:32:16.421Z,3060
2017-04-05T08:32:57.772Z,3045
2017-04-05T08:33:39.074Z,2880
2017-04-05T08:36:13.732Z,3205
2017-04-05T08:36:54.807Z,3225
2017-04-05T08:37:35.988Z,3285
2017-04-05T08:38:18.082Z,3485
2017-04-05T08:38:59.283Z,3400
2017-04-05T08:39:39.685Z,3275
2017-04-05T08:40:20.238Z,3445
2017-04-05T08:41:00.570Z,3575
2017-04-05T08:41:40.992Z,3415
2017-04-05T08:42:21.398Z,3405
2017-04-05T08:43:02.379Z,3385
2017-04-05T08:43:42.804Z,3610
2017-04-05T08:44:25.170Z,3690
2017-04-05T08:45:05.582Z,3550
2017-04-05T08:45:45.993Z,3395
2017-04-05T08:46:26.416Z,3350
2017-04-05T08:47:07.384Z,3585
2017-04-05T08:47:48.559Z,3385
2017-04-05T08:48:31.557Z,3420
2017-04-05T08:49:12.019Z,3345
2017-04-05T08:49:53.267Z,3675
2017-04-05T08:50:35.407Z,3610
2017-04-05T08:51:15.870Z,3690
2017-04-05T08:51:56.303Z,3750
2017-04-05T08:52:36.735Z,3780
2017-04-05T08:55:15.611Z,4120
2017-04-05T08:55:56.734Z,4080
2017-04-05T08:56:37.240Z,4010
2017-04-05T08:57:18.415Z,4095
2017-04-05T08:57:59.357Z,3930
2017-04-05T08:58:39.921Z,3910
2017-04-05T08:59:21.909Z,3990
2017-04-05T09:00:03.831Z,4050
2017-04-05T09:00:44.854Z,4140
2017-04-05T09:01:26.171Z,4135
2017-04-05T09:02:06.585Z,4055
2017-04-05T09:02:47.051Z,4235
2017-04-05T09:05:02.036Z,4260
2017-04-05T09:05:42.709Z,4370
2017-04-05T09:09:44.526Z,3760
2017-04-05T09:10:25.809Z,3260
2017-04-05T09:12:39.780Z,4170
2017-04-05T09:14:53.290Z,2930
2017-04-05T09:15:33.524Z,4195
2017-04-05T09:16:15.431Z,4260
2017-04-05T09:16:56.399Z,4255
2017-04-05T09:17:37.495Z,4140
2017-04-05T09:18:17.890Z,4250
2017-04-05T09:18:59.934Z,4140
2017-04-05T09:19:43.774Z,4115
2017-04-05T09:20:24.148Z,4105
2017-04-05T09:21:04.687Z,3935
2017-04-05T09:23:37.987Z,3605
2017-04-05T09:24:19.080Z,3735
2017-04-05T09:24:59.488Z,3500
2017-04-05T09:25:39.931Z,2295
2017-04-05T09:26:23.086Z,3100
2017-04-05T09:27:04.072Z,3315
2017-04-05T09:27:45.852Z,4055
2017-04-05T09:30:29.052Z,4300
2017-04-05T09:31:09.466Z,4070
2017-04-05T09:31:50.875Z,3950
2017-04-05T09:32:33.120Z,3595
2017-04-05T09:33:15.394Z,3530
2017-04-05T09:33:55.820Z,3865
2017-04-05T09:34:38.016Z,3795
2017-04-05T09:35:18.812Z,3315
2017-04-05T09:36:01.188Z,3195
2017-04-05T09:36:41.599Z,3620
2017-04-05T09:37:23.623Z,3580
2017-04-05T09:38:04.102Z,3460
2017-04-05T09:38:44.817Z,3820
2017-04-05T09:39:26.021Z,2965
2017-04-05T09:40:06.860Z,3245
2017-04-05T09:40:49.996Z,3855
2017-04-05T09:41:33.059Z,3745
2017-04-05T09:42:15.477Z,3760
2017-04-05T09:42:56.718Z,3770
2017-04-05T09:43:38.723Z,3405
2017-04-05T09:44:20.459Z,3825
2017-04-05T09:45:00.919Z,3545
2017-04-05T09:45:42.912Z,3905
2017-04-05T09:46:23.708Z,3330
2017-04-05T09:47:04.905Z,3745
2017-04-05T09:47:46.253Z,4520
2017-04-05T09:48:26.667Z,4460
2017-04-05T09:49:07.077Z,4565
2017-04-05T09:49:47.507Z,4415
2017-04-05T09:50:28.598Z,4265
2017-04-05T09:51:09.666Z,4670
2017-04-05T09:51:52.006Z,4955
2017-04-05T09:52:32.636Z,4815
2017-04-05T09:53:14.491Z,5160
2017-04-05T09:53:55.022Z,4910
2017-04-05T09:54:35.449Z,4805
2017-04-05T09:55:15.913Z,5010
2017-04-05T09:55:57.166Z,5135
2017-04-05T09:56:39.166Z,4855
2017-04-05T09:57:20.479Z,5035
2017-04-05T09:58:02.390Z,5025
2017-04-05T09:58:44.411Z,5140
2017-04-05T09:59:24.814Z,5095
2017-04-05T10:00:05.277Z,5170
2017-04-05T10:00:46.444Z,5285
2017-04-05T10:01:27.644Z,5135
2017-04-05T10:02:08.092Z,5045
2017-04-05T10:02:49.421Z,5200
2017-04-05T10:03:30.393Z,5155
2017-04-05T10:04:11.780Z,5235
2017-04-05T10:04:52.893Z,5195
2017-04-05T10:05:33.332Z,5090
2017-04-05T10:06:13.782Z,4875
2017-04-05T10:06:55.029Z,4855
2017-04-05T10:07:35.432Z,4800
2017-04-05T10:08:17.643Z,4790
2017-04-05T10:09:00.430Z,4835
2017-04-05T10:09:40.833Z,5060
2017-04-05T10:10:22.178Z,4860
2017-04-05T10:11:02.619Z,4920
2017-04-05T10:11:43.586Z,5045
2017-04-05T10:12:24.762Z,5010
2017-04-05T10:13:05.162Z,5125
2017-04-05T10:13:45.596Z,5000
2017-04-05T10:14:26.018Z,4920
2017-04-05T10:15:07.422Z,5190
2017-04-05T10:15:47.901Z,5325
2017-04-05T10:16:29.069Z,5355
2017-04-05T10:17:10.273Z,5160
2017-04-05T10:17:50.683Z,5025
2017-04-05T10:18:31.772Z,5290
2017-04-05T10:19:12.212Z,5565
2017-04-05T10:19:59.897Z,5165
2017-04-05T10:22:12.937Z,5320
2017-04-05T10:22:58.794Z,4960
2017-04-05T10:23:40.204Z,5455
2017-04-05T10:24:22.616Z,1300
2017-04-05T10:26:44.962Z,4980
2017-04-05T10:27:26.936Z,4415
2017-04-05T10:28:07.378Z,4675
2017-04-05T10:28:47.814Z,5265
2017-04-05T10:29:28.970Z,5150
2017-04-05T10:30:11.136Z,5150
2017-04-05T10:30:51.551Z,5405
2017-04-05T10:31:31.974Z,5450
2017-04-05T10:32:12.417Z,5260
2017-04-05T10:32:52.881Z,5310
2017-04-05T10:33:34.018Z,5655
2017-04-05T10:34:14.482Z,5665
2017-04-05T10:34:56.881Z,5450
2017-04-05T10:35:37.283Z,5500
2017-04-05T10:36:17.861Z,5610
2017-04-05T10:36:58.959Z,5355
2017-04-05T10:37:40.090Z,5140
2017-04-05T10:38:22.123Z,4805
2017-04-05T10:39:02.558Z,5355
2017-04-05T10:39:43.693Z,5405
2017-04-05T10:40:24.157Z,5200
2017-04-05T10:41:04.576Z,5185
2017-04-05T10:41:46.542Z,5295
2017-04-05T10:42:27.613Z,5380
2017-04-05T10:43:08.541Z,5355
2017-04-05T10:43:49.958Z,5550
2017-04-05T10:44:30.373Z,5905
2017-04-05T10:45:11.724Z,5960
2017-04-05T10:45:52.168Z,5685
2017-04-05T10:46:32.593Z,5755
2017-04-05T10:47:13.024Z,5640
2017-04-05T10:47:53.431Z,5650
2017-04-05T10:48:34.604Z,5805
2017-04-05T10:49:15.060Z,5890
2017-04-05T10:49:55.481Z,5120
2017-04-05T10:50:36.465Z,5115
2017-04-05T10:51:16.941Z,5755
2017-04-05T10:51:58.069Z,5645
2017-04-05T10:52:38.548Z,5735
2017-04-05T10:53:19.396Z,5225
2017-04-05T10:54:00.718Z,5445
2017-04-05T10:54:41.143Z,5620
2017-04-05T10:55:21.641Z,5370
2017-04-05T10:56:02.061Z,5045
2017-04-05T10:56:43.893Z,5010
2017-04-05T10:57:25.034Z,5100
2017-04-05T10:58:07.398Z,5190
2017-04-05T10:58:47.958Z,5240
2017-04-05T10:59:28.577Z,5060
2017-04-05T11:00:09.077Z,4955
2017-04-05T11:00:50.065Z,4980
2017-04-05T11:01:30.508Z,4450
2017-04-05T11:02:10.917Z,2685
2017-04-05T11:02:52.194Z,3505
2017-04-05T11:03:32.633Z,1575
2017-04-05T11:04:13.094Z,2165
2017-04-05T11:04:58.332Z,1660
2017-04-05T11:05:38.690Z,1740
2017-04-05T11:06:19.117Z,1610
2017-04-05T11:07:00.141Z,1505
2017-04-05T11:07:42.175Z,1455
2017-04-05T11:08:23.965Z,1420
2017-04-05T11:09:04.993Z,1345
2017-04-05T11:09:46.378Z,1225
2017-04-05T11:10:27.578Z,1135
2017-04-05T11:11:09.375Z,1105
2017-04-05T11:11:55.472Z,1060
2017-04-05T11:12:38.713Z,1065
2017-04-05T11:13:20.598Z,1105
2017-04-05T11:14:02.658Z,1165
2017-04-05T11:14:43.874Z,1145
2017-04-05T11:15:24.760Z,1180
2017-04-05T11:16:05.339Z,1255
2017-04-05T11:16:47.718Z,1370
2017-04-05T11:17:28.137Z,1530
2017-04-05T11:18:08.563Z,1855
2017-04-05T11:18:49.888Z,2135
2017-04-05T11:19:31.165Z,3515
2017-04-05T11:20:11.598Z,3510
2017-04-05T11:20:53.448Z,4180
2017-04-05T11:21:35.104Z,4300
2017-04-05T11:22:15.632Z,3340
2017-04-05T11:22:57.534Z,4070
2017-04-05T11:23:38.019Z,4055
2017-04-05T11:24:18.482Z,4180
2017-04-05T11:24:59.610Z,3975
2017-04-05T11:25:40.002Z,4270
2017-04-05T11:26:20.465Z,4315
2017-04-05T11:27:00.847Z,4345
2017-04-05T11:27:41.288Z,4135
2017-04-05T11:28:21.680Z,4040
2017-04-05T11:29:03.045Z,3945
2017-04-05T11:29:43.503Z,3635
2017-04-05T11:30:23.883Z,3795
2017-04-05T11:31:06.887Z,3860
2017-04-05T11:31:48.937Z,4145
2017-04-05T11:32:30.014Z,4115
2017-04-05T11:33:13.940Z,3805
2017-04-05T11:33:54.996Z,3600
2017-04-05T11:34:36.176Z,3240
2017-04-05T11:35:18.492Z,3420
2017-04-05T11:35:58.930Z,3020
2017-04-05T11:36:39.363Z,2895
2017-04-05T11:37:21.424Z,3195
2017-04-05T11:38:02.518Z,2960
2017-04-05T11:38:42.958Z,2415
2017-04-05T11:39:28.922Z,1440
2017-04-05T11:40:11.164Z,1275
2017-04-05T11:40:52.905Z,1180
2017-04-05T11:41:33.319Z,1095
2017-04-05T11:42:14.680Z,1015
2017-04-05T11:42:56.937Z,955
2017-04-05T11:43:37.325Z,905
2017-04-05T11:44:18.527Z,875
2017-04-05T11:44:58.937Z,880
2017-04-05T11:45:40.026Z,920
2017-04-05T11:46:20.414Z,985
2017-04-05T11:47:03.496Z,1070
2017-04-05T11:47:44.831Z,1120
2017-04-05T11:48:25.228Z,1335
2017-04-05T11:49:05.653Z,1345
2017-04-05T11:49:46.112Z,1285
2017-04-05T11:50:29.907Z,1280
2017-04-05T11:51:10.962Z,1340
2017-04-05T11:51:51.925Z,1425
2017-04-05T11:52:33.046Z,1480
2017-04-05T11:53:13.474Z,1420
2017-04-05T11:53:53.917Z,1420
2017-04-05T11:54:35.029Z,1505
2017-04-05T11:55:15.459Z,1420
2017-04-05T11:55:55.893Z,1405
2017-04-05T11:56:36.377Z,1440
2017-04-05T11:57:17.687Z,2155
2017-04-05T11:57:58.116Z,1955
2017-04-05T11:58:38.527Z,1670
2017-04-05T11:59:18.911Z,1130
2017-04-05T11:59:59.348Z,945
2017-04-05T12:00:39.789Z,840
2017-04-05T12:01:20.210Z,760
2017-04-05T12:02:02.950Z,700
2017-04-05T12:02:43.441Z,665
2017-04-05T12:03:24.083Z,645
2017-04-05T12:04:05.190Z,625
2017-04-05T12:04:45.623Z,620
2017-04-05T12:05:26.269Z,610
2017-04-05T12:06:07.431Z,595
2017-04-05T12:08:23.953Z,615
2017-04-05T12:10:39.302Z,680
2017-04-05T12:11:19.940Z,690
2017-04-05T12:12:00.382Z,755
2017-04-05T12:12:40.753Z,775
2017-04-05T12:13:21.181Z,785
2017-04-05T12:14:01.601Z,820
2017-04-05T12:14:43.003Z,830
2017-04-05T12:15:23.399Z,795
2017-04-05T12:16:03.801Z,745
2017-04-05T12:16:44.214Z,685
2017-04-05T12:17:24.653Z,635
2017-04-05T12:18:05.111Z,590
2017-04-05T12:18:45.515Z,535
2017-04-05T12:19:25.879Z,500
2017-04-05T12:21:44.317Z,455
2017-04-05T12:24:24.644Z,455
2017-04-05T12:25:10.469Z,465
2017-04-05T12:25:51.646Z,485
2017-04-05T12:26:32.088Z,510
2017-04-05T12:27:12.495Z,545
2017-04-05T12:27:52.888Z,595
2017-04-05T12:28:33.382Z,640
2017-04-05T12:29:14.569Z,675
2017-04-05T12:29:57.454Z,715
2017-04-05T12:30:37.821Z,760
2017-04-05T12:31:18.238Z,800
2017-04-05T12:31:59.266Z,835
2017-04-05T12:32:39.678Z,885
2017-04-05T12:35:26.051Z,1030
2017-04-05T12:36:12.331Z,1005
2017-04-05T12:36:59.429Z,960
2017-04-05T12:37:43.111Z,925
2017-04-05T12:38:23.809Z,910
2017-04-05T12:39:04.038Z,920
2017-04-05T12:39:44.407Z,935
2017-04-05T12:40:24.830Z,955
2017-04-05T12:41:05.210Z,960
2017-04-05T12:41:46.441Z,945
2017-04-05T12:42:26.913Z,910
2017-04-05T12:46:21.017Z,1030
2017-04-05T12:49:06.249Z,1365
2017-04-05T12:51:28.176Z,1325
2017-04-05T12:52:13.988Z,1290
2017-04-05T12:54:39.983Z,1125
2017-04-05T12:55:28.772Z,1090
2017-04-05T12:56:17.283Z,1070
2017-04-05T12:57:08.889Z,1095
2017-04-05T12:57:51.108Z,1110
2017-04-05T12:58:33.861Z,1105
2017-04-05T12:59:14.218Z,1105
2017-04-05T12:59:54.891Z,1100
2017-04-05T13:00:36.074Z,1110
2017-04-05T13:01:16.265Z,1100
2017-04-05T13:02:03.296Z,1100
2017-04-05T13:02:43.665Z,1115
2017-04-05T13:03:28.801Z,1175
2017-04-05T13:04:13.672Z,1225
2017-04-05T13:04:56.823Z,1225
2017-04-05T13:05:40.863Z,1225
2017-04-05T13:06:21.332Z,1185
2017-04-05T13:07:04.608Z,1145
2017-04-05T13:07:47.784Z,1140
2017-04-05T13:08:31.054Z,1180
2017-04-05T13:09:14.865Z,1210
2017-04-05T13:09:55.235Z,1215
2017-04-05T13:10:36.693Z,1145
2017-04-05T13:11:20.360Z,1110
2017-04-05T13:12:02.558Z,1120
2017-04-05T13:12:46.794Z,1145
2017-04-05T13:13:27.371Z,1140
2017-04-05T13:14:10.782Z,1095
2017-04-05T13:14:53.130Z,1075
2017-04-05T13:15:33.659Z,1065
2017-04-05T13:16:17.053Z,1065
2017-04-05T13:16:58.685Z,1070
2017-04-05T13:17:41.418Z,1070
2017-04-05T13:18:23.362Z,1040
2017-04-05T13:19:07.300Z,990
2017-04-05T13:19:52.434Z,970
2017-04-05T13:20:32.860Z,960
2017-04-05T13:21:14.787Z,955
2017-04-05T13:21:58.020Z,965
2017-04-05T13:22:42.802Z,975
2017-04-05T13:23:26.197Z,1000
2017-04-05T13:24:10.379Z,1035
2017-04-05T13:24:50.901Z,1065
2017-04-05T13:25:31.368Z,1095
2017-04-05T13:26:11.830Z,1125
2017-04-05T13:26:53.870Z,1155
2017-04-05T13:27:36.781Z,1180
2017-04-05T13:28:17.329Z,1205
2017-04-05T13:28:57.709Z,1205
2017-04-05T13:29:40.803Z,1185
2017-04-05T13:30:24.338Z,1085
2017-04-05T13:31:04.887Z,1000
2017-04-05T13:31:45.313Z,975
2017-04-05T13:32:26.016Z,965
2017-04-05T13:33:07.203Z,980
2017-04-05T13:33:47.133Z,1000
2017-04-05T13:34:28.752Z,1055
2017-04-05T13:35:14.189Z,1090
2017-04-05T13:35:55.279Z,1090
2017-04-05T13:36:42.378Z,1080
2017-04-05T13:37:25.734Z,1065
2017-04-05T13:38:07.924Z,1065
2017-04-05T13:38:50.193Z,1050
2017-04-05T13:39:33.793Z,1055
2017-04-05T13:40:16.039Z,1045
2017-04-05T13:40:57.439Z,1040
2017-04-05T13:41:43.359Z,1055
2017-04-05T13:42:29.304Z,1060
2017-04-05T13:43:10.743Z,1055
2017-04-05T13:43:52.938Z,1045
2017-04-05T13:44:33.415Z,1045
2017-04-05T13:45:15.836Z,1050
2017-04-05T13:46:00.879Z,1055
2017-04-05T13:46:44.801Z,1045
2017-04-05T13:47:27.851Z,1060
2017-04-05T13:48:11.862Z,1065
2017-04-05T13:48:54.874Z,1060
2017-04-05T13:49:36.997Z,1060
2017-04-05T13:50:20.147Z,1070
2017-04-05T13:51:03.372Z,1085
2017-04-05T13:51:47.523Z,1080
2017-04-05T13:52:30.766Z,1060
2017-04-05T14:01:36.101Z,990
2017-04-05T14:02:19.931Z,1020
2017-04-05T14:03:01.130Z,985
2017-04-05T14:03:41.598Z,930
2017-04-05T14:04:21.987Z,880
2017-04-05T14:08:38.372Z,705
2017-04-05T14:11:12.948Z,745
2017-04-05T14:11:59.470Z,740
2017-04-05T14:12:41.325Z,735
2017-04-05T14:13:23.190Z,720
2017-04-05T14:14:03.594Z,715
2017-04-05T14:14:45.592Z,695
2017-04-05T14:15:25.999Z,680
2017-04-05T14:16:09.088Z,640
2017-04-05T14:16:50.333Z,630
2017-04-05T14:17:30.731Z,655
2017-04-05T14:18:11.848Z,695
2017-04-05T14:18:52.235Z,750
2017-04-05T14:19:33.459Z,760
2017-04-05T14:20:13.751Z,755
2017-04-05T14:20:54.340Z,735
2017-04-05T14:21:34.748Z,715
2017-04-05T14:22:15.135Z,670
2017-04-05T14:22:56.408Z,635
2017-04-05T14:23:36.881Z,610
2017-04-05T14:24:17.294Z,595
2017-04-05T14:24:58.675Z,590
2017-04-05T14:25:39.222Z,590
2017-04-05T14:26:20.631Z,595
2017-04-05T14:27:01.961Z,620
2017-04-05T14:27:43.212Z,630
2017-04-05T14:28:23.640Z,640
2017-04-05T14:29:04.994Z,655
2017-04-05T14:29:46.408Z,655
2017-04-05T14:30:27.317Z,655
2017-04-05T14:31:07.862Z,665
2017-04-05T14:31:48.216Z,685
2017-04-05T14:32:28.712Z,705
2017-04-05T14:33:09.100Z,735
2017-04-05T14:33:49.543Z,755
2017-04-05T14:34:30.057Z,755
2017-04-05T14:35:10.347Z,755
2017-04-05T14:35:51.436Z,750
2017-04-05T14:36:31.852Z,740
2017-04-05T14:37:12.268Z,720
2017-04-05T14:37:52.659Z,695
2017-04-05T14:38:33.113Z,690
2017-04-05T14:39:14.276Z,675
2017-04-05T14:39:56.340Z,670
2017-04-05T14:40:36.763Z,675
2017-04-05T14:41:17.865Z,680
2017-04-05T14:41:59.085Z,670
2017-04-05T14:42:40.279Z,660
2017-04-05T14:43:20.620Z,635
2017-04-05T14:44:01.162Z,630
2017-04-05T14:44:41.647Z,635
2017-04-05T14:45:23.761Z,635
2017-04-05T14:46:04.147Z,630
2017-04-05T14:46:44.597Z,640
2017-04-05T14:47:25.017Z,630
2017-04-05T14:48:05.403Z,630
2017-04-05T14:48:47.196Z,630
2017-04-05T14:49:29.459Z,645
2017-04-05T14:50:10.029Z,630
2017-04-05T14:50:50.398Z,645
2017-04-05T14:51:30.835Z,660
2017-04-05T14:52:12.101Z,675
2017-04-05T14:52:52.473Z,680
2017-04-05T14:53:32.950Z,695
2017-04-05T14:54:15.257Z,700
2017-04-05T14:54:57.456Z,705
2017-04-05T14:55:37.836Z,710
2017-04-05T14:56:18.265Z,715
2017-04-05T14:56:58.684Z,705
2017-04-05T14:57:39.147Z,700
2017-04-05T14:58:19.520Z,695
2017-04-05T14:58:59.934Z,690
2017-04-05T14:59:40.383Z,685
2017-04-05T15:00:20.782Z,690
2017-04-05T15:01:01.176Z,690
2017-04-05T15:01:41.615Z,680
2017-04-05T15:02:21.991Z,665
2017-04-05T15:03:02.450Z,640
2017-04-05T15:03:42.870Z,615
2017-04-05T15:04:24.215Z,590
2017-04-05T15:05:04.588Z,570
2017-04-05T15:05:44.990Z,555
2017-04-05T15:06:25.440Z,550
2017-04-05T15:07:05.839Z,540
2017-04-05T15:07:46.222Z,540
2017-04-05T15:08:26.657Z,540
2017-04-05T15:09:07.038Z,540
2017-04-05T15:09:47.477Z,540
2017-04-05T15:10:27.875Z,540
2017-04-05T15:11:08.308Z,540
2017-04-05T15:11:48.656Z,535
2017-04-05T15:12:29.072Z,525
2017-04-05T15:13:09.560Z,515
2017-04-05T15:13:49.897Z,495
2017-04-05T15:14:30.283Z,485
2017-04-05T15:15:10.750Z,475
2017-04-05T15:15:52.008Z,470
2017-04-05T15:16:32.357Z,460
2017-04-05T15:17:13.012Z,445
2017-04-05T15:17:54.250Z,430
2017-04-05T15:18:36.237Z,405
2017-04-05T15:19:16.647Z,380
2017-04-05T15:19:57.034Z,360
2017-04-05T15:20:37.452Z,350
2017-04-05T15:21:20.904Z,345
2017-04-05T15:22:01.318Z,350